Giove Jet — IJNX — position and weather

sailwx.info

Track history (hours):
 
Tides and Currents Weather Stations Pressure Air Temp Water Temp Dewpoint Dewpoint Depression Visibility Wind Speed Wind Dir Waves Ship Positions

Giove Jet

Last reported at 2016-Aug-29 13:30 UTC. Time now 2016-Aug-29 23:33 UTC.
Position N 40°51' E 014°16'.

Length 33 m; draft 1.2 m.

MMSI: 247049500.

Date/timePositionNaut miles runAvg speedWind from/ knotsBaromVisibWave heightAir tempDewpointWater temp
2016-Aug-29 13:30N 40°51' E 014°16'12 0.5
2016-Aug-28 14:22N 40°45' E 014°03'910.6
2016-Aug-28 13:28N 40°50' E 014°13'2 1.5
2016-Aug-28 12:20N 40°50' E 014°16'1412.5
2016-Aug-28 11:12N 40°45' E 013°58'10 0.5
2016-Aug-27 13:29N 40°47' E 014°11'4 0.2
2016-Aug-26 16:23N 40°50' E 014°14'0 0.0
2016-Aug-24 16:06N 40°50' E 014°13'2 4.1
2016-Aug-24 15:32N 40°51' E 014°16'0 0.0
2016-Aug-24 14:33N 40°51' E 014°16'0 0.0
2016-Aug-24 13:33N 40°51' E 014°16'4 4.2
2016-Aug-24 12:34N 40°48' E 014°12'1312.3
2016-Aug-24 11:32N 40°45' E 013°56'1412.5
2016-Aug-24 10:26N 40°50' E 014°14'2 2.6
2016-Aug-24 09:33N 40°50' E 014°17'2 1.2
2016-Aug-24 07:31N 40°50' E 014°13'2 2.4
2016-Aug-24 06:34N 40°48' E 014°13'2 0.2
2016-Aug-23 16:33N 40°50' E 014°14'2 0.1
2016-Aug-22 13:33N 40°51' E 014°16'1 0.4
2016-Aug-22 12:12N 40°50' E 014°16'1421.7
2016-Aug-22 11:34N 40°44' E 013°59'4 3.2
2016-Aug-22 10:11N 40°46' E 013°54'812.2
2016-Aug-22 09:34N 40°45' E 014°04'11 8.8
2016-Aug-22 08:20N 40°50' E 014°16'0 0.1
2016-Aug-22 07:14N 40°51' E 014°16'0 0.0
2016-Aug-21 18:12N 40°51' E 014°16'710.5
2016-Aug-21 17:33N 40°46' E 014°09'3 2.7
2016-Aug-21 16:33N 40°45' E 014°06'8 7.7
2016-Aug-21 15:34N 40°49' E 014°15'9 9.0
2016-Aug-21 14:33N 40°45' E 014°04'6 6.0
2016-Aug-21 13:33N 40°45' E 013°56'7 2.2
2016-Aug-21 10:34N 40°45' E 014°05'8 5.7
2016-Aug-21 09:09N 40°46' E 013°54'712.1
2016-Aug-21 08:33N 40°45' E 014°04'9 8.7
2016-Aug-21 07:33N 40°50' E 014°13'0 0.0
2016-Aug-21 06:32N 40°50' E 014°13'0 0.0
2016-Aug-20 16:06N 40°50' E 014°13'2 4.5
2016-Aug-20 15:33N 40°50' E 014°17'1616.1
2016-Aug-20 14:33N 40°45' E 013°56'1515.4
2016-Aug-20 13:33N 40°50' E 014°15'3 3.1
2016-Aug-20 12:33N 40°48' E 014°13'1312.8
2016-Aug-20 11:33N 40°45' E 013°56'1412.7
2016-Aug-20 10:28N 40°50' E 014°13'2 2.1
2016-Aug-20 09:33N 40°49' E 014°15'2 0.9
2016-Aug-20 07:25N 40°50' E 014°13'2 2.6
2016-Aug-20 06:33N 40°51' E 014°16'1 0.0
2016-Aug-19 15:34N 40°50' E 014°16'1615.9
2016-Aug-19 14:33N 40°45' E 013°56'  
Track history (hours):
 
Tides and Currents Weather Stations Pressure Air Temp Water Temp Dewpoint Dewpoint Depression Visibility Wind Speed Wind Dir Waves Ship Positions

Giove Jet

Last reported at 2016-Aug-29 13:30 UTC. Time now 2016-Aug-29 23:33 UTC.
Position N 40°51' E 014°16'.

Length 33 m; draft 1.2 m.

MMSI: 247049500.

Date/timePositionNaut miles runAvg speedWind from/ knotsBaromVisibWave heightAir tempDewpointWater temp
2016-Aug-29 13:30N 40°51' E 014°16'12 0.5
2016-Aug-28 14:22N 40°45' E 014°03'910.6
2016-Aug-28 13:28N 40°50' E 014°13'2 1.5
2016-Aug-28 12:20N 40°50' E 014°16'1412.5
2016-Aug-28 11:12N 40°45' E 013°58'10 0.5
2016-Aug-27 13:29N 40°47' E 014°11'4 0.2
2016-Aug-26 16:23N 40°50' E 014°14'0 0.0
2016-Aug-24 16:06N 40°50' E 014°13'2 4.1
2016-Aug-24 15:32N 40°51' E 014°16'0 0.0
2016-Aug-24 14:33N 40°51' E 014°16'0 0.0
2016-Aug-24 13:33N 40°51' E 014°16'4 4.2
2016-Aug-24 12:34N 40°48' E 014°12'1312.3
2016-Aug-24 11:32N 40°45' E 013°56'1412.5
2016-Aug-24 10:26N 40°50' E 014°14'2 2.6
2016-Aug-24 09:33N 40°50' E 014°17'2 1.2
2016-Aug-24 07:31N 40°50' E 014°13'2 2.4
2016-Aug-24 06:34N 40°48' E 014°13'2 0.2
2016-Aug-23 16:33N 40°50' E 014°14'2 0.1
2016-Aug-22 13:33N 40°51' E 014°16'1 0.4
2016-Aug-22 12:12N 40°50' E 014°16'1421.7
2016-Aug-22 11:34N 40°44' E 013°59'4 3.2
2016-Aug-22 10:11N 40°46' E 013°54'812.2
2016-Aug-22 09:34N 40°45' E 014°04'11 8.8
2016-Aug-22 08:20N 40°50' E 014°16'0 0.1
2016-Aug-22 07:14N 40°51' E 014°16'0 0.0
2016-Aug-21 18:12N 40°51' E 014°16'710.5
2016-Aug-21 17:33N 40°46' E 014°09'3 2.7
2016-Aug-21 16:33N 40°45' E 014°06'8 7.7
2016-Aug-21 15:34N 40°49' E 014°15'9 9.0
2016-Aug-21 14:33N 40°45' E 014°04'6 6.0
2016-Aug-21 13:33N 40°45' E 013°56'7 2.2
2016-Aug-21 10:34N 40°45' E 014°05'8 5.7
2016-Aug-21 09:09N 40°46' E 013°54'712.1
2016-Aug-21 08:33N 40°45' E 014°04'9 8.7
2016-Aug-21 07:33N 40°50' E 014°13'0 0.0
2016-Aug-21 06:32N 40°50' E 014°13'0 0.0
2016-Aug-20 16:06N 40°50' E 014°13'2 4.5
2016-Aug-20 15:33N 40°50' E 014°17'1616.1
2016-Aug-20 14:33N 40°45' E 013°56'1515.4
2016-Aug-20 13:33N 40°50' E 014°15'3 3.1
2016-Aug-20 12:33N 40°48' E 014°13'1312.8
2016-Aug-20 11:33N 40°45' E 013°56'1412.7
2016-Aug-20 10:28N 40°50' E 014°13'2 2.1
2016-Aug-20 09:33N 40°49' E 014°15'2 0.9
2016-Aug-20 07:25N 40°50' E 014°13'2 2.6
2016-Aug-20 06:33N 40°51' E 014°16'1 0.0
2016-Aug-19 15:34N 40°50' E 014°16'1615.9
2016-Aug-19 14:33N 40°45' E 013°56'  

Dump ship's entire track history